createdAt,value
2022-07-31T00:00:06.580Z,964.17
2022-07-31T00:01:05.576Z,964.16
2022-07-31T00:02:05.435Z,964.14
2022-07-31T00:03:05.452Z,964.15
2022-07-31T00:04:05.426Z,964.13
2022-07-31T00:05:05.520Z,964.14
2022-07-31T00:06:05.437Z,964.09
2022-07-31T00:07:05.646Z,964.14
2022-07-31T00:08:05.531Z,964.1
2022-07-31T00:09:05.597Z,964.13
2022-07-31T00:10:05.660Z,964.08
2022-07-31T00:11:05.538Z,964.09
2022-07-31T00:12:05.608Z,964.13
2022-07-31T00:13:05.457Z,964.09
2022-07-31T00:14:05.537Z,964.07
2022-07-31T00:15:05.694Z,964.08
2022-07-31T00:16:05.465Z,964.07
2022-07-31T00:17:05.789Z,964.06
2022-07-31T00:18:06.674Z,964.07
2022-07-31T00:20:05.546Z,964.09
2022-07-31T00:21:05.535Z,964.05
2022-07-31T00:22:05.583Z,964.06
2022-07-31T00:23:05.549Z,964.02
2022-07-31T00:24:05.492Z,964.04
2022-07-31T00:25:05.584Z,964.02
2022-07-31T00:26:05.487Z,963.97
2022-07-31T00:27:06.960Z,964.03
2022-07-31T00:28:05.584Z,964.01
2022-07-31T00:30:05.630Z,963.96
2022-07-31T00:31:05.603Z,963.98
2022-07-31T00:32:05.501Z,963.96
2022-07-31T00:33:05.621Z,964.01
2022-07-31T00:34:05.513Z,963.98
2022-07-31T00:35:05.662Z,964.01
2022-07-31T00:36:05.529Z,963.96
2022-07-31T00:37:05.807Z,963.97
2022-07-31T00:41:06.820Z,963.95
2022-07-31T00:42:05.639Z,963.97
2022-07-31T00:44:06.822Z,963.94
2022-07-31T00:46:05.611Z,963.95
2022-07-31T00:47:07.072Z,963.96
2022-07-31T00:48:05.658Z,963.97
2022-07-31T00:49:05.681Z,963.93
2022-07-31T00:50:05.690Z,963.91
2022-07-31T00:51:05.661Z,963.92
2022-07-31T00:53:05.556Z,963.89
2022-07-31T00:54:05.666Z,963.88
2022-07-31T00:55:05.620Z,963.89
2022-07-31T00:57:05.923Z,963.9
2022-07-31T00:58:05.627Z,963.91
2022-07-31T00:59:05.696Z,963.94
2022-07-31T01:00:05.668Z,963.92
2022-07-31T01:01:05.676Z,963.88
2022-07-31T01:02:05.702Z,963.9
2022-07-31T01:03:05.675Z,963.87
2022-07-31T01:04:05.738Z,963.86
2022-07-31T01:05:05.596Z,963.84
2022-07-31T01:06:05.674Z,963.82
2022-07-31T01:07:05.792Z,963.86
2022-07-31T01:08:05.598Z,963.81
2022-07-31T01:09:05.592Z,963.88
2022-07-31T01:10:05.602Z,963.84
2022-07-31T01:12:05.685Z,963.82
2022-07-31T01:13:10.186Z,963.83
2022-07-31T01:14:05.615Z,963.82
2022-07-31T01:15:05.611Z,963.84
2022-07-31T01:16:05.655Z,963.8
2022-07-31T01:17:05.955Z,963.73
2022-07-31T01:18:05.612Z,963.81
2022-07-31T01:19:05.818Z,963.79
2022-07-31T01:20:05.729Z,963.78
2022-07-31T01:21:05.616Z,963.79
2022-07-31T01:22:07.050Z,963.8
2022-07-31T01:23:05.879Z,963.79
2022-07-31T01:24:05.583Z,963.74
2022-07-31T01:25:05.631Z,963.78
2022-07-31T01:26:05.738Z,963.77
2022-07-31T01:27:06.033Z,963.79
2022-07-31T01:28:07.211Z,963.8
2022-07-31T01:29:05.733Z,963.74
2022-07-31T01:30:05.656Z,963.78
2022-07-31T01:32:06.076Z,963.77
2022-07-31T01:33:05.812Z,963.78
2022-07-31T01:35:05.656Z,963.75
2022-07-31T01:36:05.728Z,963.8
2022-07-31T01:37:06.025Z,963.79
2022-07-31T01:38:05.749Z,963.8
2022-07-31T01:40:05.797Z,963.81
2022-07-31T01:41:05.766Z,963.8
2022-07-31T01:42:06.191Z,963.83
2022-07-31T01:43:05.798Z,963.81
2022-07-31T01:44:05.757Z,963.78
2022-07-31T01:45:06.693Z,963.77
2022-07-31T01:46:05.738Z,963.79
2022-07-31T01:47:05.874Z,963.77
2022-07-31T01:48:05.686Z,963.79
2022-07-31T01:50:05.703Z,963.78
2022-07-31T01:52:06.097Z,963.79
2022-07-31T01:53:05.876Z,963.8
2022-07-31T01:54:05.844Z,963.79
2022-07-31T01:56:05.956Z,963.78
2022-07-31T01:57:05.708Z,963.77
2022-07-31T01:59:05.790Z,963.75
2022-07-31T02:00:06.000Z,963.78
2022-07-31T02:01:06.024Z,963.71
2022-07-31T02:02:06.178Z,963.75
2022-07-31T02:03:09.350Z,963.78
2022-07-31T02:04:05.950Z,963.8
2022-07-31T02:05:05.791Z,963.81
2022-07-31T02:06:05.730Z,963.8
2022-07-31T02:07:05.822Z,963.81
2022-07-31T02:09:05.896Z,963.84
2022-07-31T02:10:05.928Z,963.83
2022-07-31T02:11:05.907Z,963.84
2022-07-31T02:13:05.972Z,963.86
2022-07-31T02:14:05.900Z,963.84
2022-07-31T02:15:05.744Z,963.9
2022-07-31T02:16:05.844Z,963.89
2022-07-31T02:17:06.866Z,963.93
2022-07-31T02:19:05.849Z,963.97
2022-07-31T02:20:06.899Z,963.96
2022-07-31T02:21:05.774Z,964
2022-07-31T02:23:05.914Z,963.99
2022-07-31T02:24:05.778Z,963.95
2022-07-31T02:25:05.782Z,963.96
2022-07-31T02:26:06.928Z,963.97
2022-07-31T02:28:05.784Z,963.99
2022-07-31T02:29:05.928Z,963.98
2022-07-31T02:30:05.892Z,963.97
2022-07-31T02:31:05.866Z,963.96
2022-07-31T02:32:06.040Z,963.95
2022-07-31T02:33:05.807Z,963.96
2022-07-31T02:34:05.866Z,963.99
2022-07-31T02:36:05.901Z,963.97
2022-07-31T02:37:05.870Z,963.98
2022-07-31T02:38:05.808Z,963.94
2022-07-31T02:39:06.068Z,963.98
2022-07-31T02:40:05.875Z,963.96
2022-07-31T02:41:05.834Z,963.99
2022-07-31T02:43:05.876Z,964
2022-07-31T02:44:06.039Z,963.99
2022-07-31T02:45:05.918Z,964.03
2022-07-31T02:47:05.955Z,964
2022-07-31T02:48:05.923Z,963.97
2022-07-31T02:49:06.052Z,964
2022-07-31T02:50:05.953Z,963.97
2022-07-31T02:51:05.918Z,963.95
2022-07-31T02:52:07.395Z,963.93
2022-07-31T02:55:05.998Z,963.94
2022-07-31T02:56:05.966Z,963.92
2022-07-31T02:57:05.853Z,963.98
2022-07-31T02:58:07.121Z,963.92
2022-07-31T02:59:05.965Z,963.89
2022-07-31T03:00:05.935Z,963.92
2022-07-31T03:01:06.120Z,963.91
2022-07-31T03:03:05.866Z,963.9
2022-07-31T03:04:05.901Z,963.88
2022-07-31T03:05:05.975Z,963.89
2022-07-31T03:08:05.940Z,963.91
2022-07-31T03:09:06.065Z,963.9
2022-07-31T03:11:05.990Z,963.92
2022-07-31T03:12:06.111Z,963.94
2022-07-31T03:14:05.905Z,963.98
2022-07-31T03:15:06.059Z,963.97
2022-07-31T03:16:06.036Z,964
2022-07-31T03:17:05.995Z,963.95
2022-07-31T03:18:08.441Z,963.97
2022-07-31T03:19:06.185Z,964
2022-07-31T03:20:05.993Z,963.99
2022-07-31T03:21:06.074Z,964.02
2022-07-31T03:22:06.388Z,964
2022-07-31T03:23:06.001Z,964.01
2022-07-31T03:25:06.038Z,963.99
2022-07-31T03:26:06.002Z,963.98
2022-07-31T03:28:05.937Z,964.01
2022-07-31T03:29:06.017Z,964.02
2022-07-31T03:30:05.991Z,964.04
2022-07-31T03:31:06.045Z,963.99
2022-07-31T03:32:06.233Z,964.01
2022-07-31T03:33:06.076Z,963.97
2022-07-31T03:34:05.951Z,963.96
2022-07-31T03:35:06.011Z,963.97
2022-07-31T03:36:06.091Z,963.98
2022-07-31T03:37:06.062Z,963.96
2022-07-31T03:38:32.856Z,963.95
2022-07-31T03:39:06.087Z,963.96
2022-07-31T03:40:06.057Z,963.97
2022-07-31T03:41:06.125Z,963.96
2022-07-31T03:43:06.062Z,963.95
2022-07-31T03:44:05.968Z,963.96
2022-07-31T03:46:05.969Z,963.98
2022-07-31T03:47:06.133Z,963.93
2022-07-31T03:48:06.107Z,963.94
2022-07-31T03:50:06.031Z,963.93
2022-07-31T03:51:06.005Z,963.96
2022-07-31T03:52:10.044Z,963.93
2022-07-31T03:53:07.131Z,963.98
2022-07-31T03:55:06.000Z,963.96
2022-07-31T03:57:05.994Z,963.93
2022-07-31T03:59:06.009Z,963.96
2022-07-31T04:00:07.344Z,963.97
2022-07-31T04:01:09.755Z,963.95
2022-07-31T04:02:06.867Z,963.96
2022-07-31T04:04:06.096Z,963.97
2022-07-31T04:05:09.872Z,963.95
2022-07-31T04:07:06.266Z,963.96
2022-07-31T04:08:06.158Z,963.95
2022-07-31T04:09:07.850Z,963.99
2022-07-31T04:10:06.098Z,964
2022-07-31T04:12:06.402Z,963.99
2022-07-31T04:13:06.038Z,964
2022-07-31T04:14:06.169Z,963.97
2022-07-31T04:15:06.047Z,963.94
2022-07-31T04:16:06.208Z,963.93
2022-07-31T04:17:06.174Z,963.89
2022-07-31T04:18:06.255Z,963.93
2022-07-31T04:19:07.137Z,963.92
2022-07-31T04:22:06.468Z,963.91
2022-07-31T04:23:07.055Z,963.89
2022-07-31T04:24:06.067Z,963.9
2022-07-31T04:25:06.064Z,963.93
2022-07-31T04:26:06.065Z,964.02
2022-07-31T04:29:06.189Z,964.01
2022-07-31T04:30:06.078Z,964.05
2022-07-31T04:31:06.227Z,964.06
2022-07-31T04:32:06.340Z,964.04
2022-07-31T04:33:06.090Z,964.05
2022-07-31T04:34:06.235Z,964.09
2022-07-31T04:35:06.204Z,964.05
2022-07-31T04:36:06.174Z,964.09
2022-07-31T04:37:06.398Z,964.1
2022-07-31T04:38:06.205Z,964.09
2022-07-31T04:39:06.180Z,964.08
2022-07-31T04:40:06.237Z,964.06
2022-07-31T04:41:06.112Z,964.07
2022-07-31T04:42:09.441Z,964.11
2022-07-31T04:43:06.392Z,964.08
2022-07-31T04:44:06.215Z,964.11
2022-07-31T04:45:06.179Z,964.1
2022-07-31T04:46:17.107Z,964.12
2022-07-31T04:47:06.218Z,964.15
2022-07-31T04:48:06.200Z,964.17
2022-07-31T04:49:06.153Z,964.12
2022-07-31T04:50:06.120Z,964.11
2022-07-31T04:51:06.289Z,964.13
2022-07-31T04:54:06.181Z,964.11
2022-07-31T04:55:06.156Z,964.09
2022-07-31T04:56:06.225Z,964.11
2022-07-31T04:57:06.298Z,964.1
2022-07-31T04:58:06.266Z,964.19
2022-07-31T04:59:06.149Z,964.17
2022-07-31T05:00:10.392Z,964.14
2022-07-31T05:01:06.257Z,964.18
2022-07-31T05:02:06.601Z,964.17
2022-07-31T05:03:06.164Z,964.19
2022-07-31T05:04:06.305Z,964.2
2022-07-31T05:05:06.244Z,964.22
2022-07-31T05:06:06.308Z,964.23
2022-07-31T05:07:06.444Z,964.22
2022-07-31T05:08:06.248Z,964.18
2022-07-31T05:10:06.283Z,964.16
2022-07-31T05:11:06.252Z,964.11
2022-07-31T05:12:06.542Z,964.14
2022-07-31T05:13:06.187Z,964.1
2022-07-31T05:15:07.471Z,964.06
2022-07-31T05:16:06.291Z,964.08
2022-07-31T05:17:06.189Z,964.03
2022-07-31T05:18:06.199Z,964.08
2022-07-31T05:19:06.295Z,964.03
2022-07-31T05:20:06.216Z,964
2022-07-31T05:21:06.198Z,964.03
2022-07-31T05:22:06.597Z,964.01
2022-07-31T05:23:06.635Z,964.05
2022-07-31T05:24:06.212Z,964.03
2022-07-31T05:25:06.217Z,964.05
2022-07-31T05:26:07.555Z,964.03
2022-07-31T05:28:08.864Z,964.02
2022-07-31T05:29:06.495Z,964.03
2022-07-31T05:30:06.240Z,964.04
2022-07-31T05:31:06.311Z,964.07
2022-07-31T05:32:07.729Z,964.06
2022-07-31T05:33:06.240Z,964.05
2022-07-31T05:35:07.623Z,964.04
2022-07-31T05:39:06.356Z,964.05
2022-07-31T05:41:07.666Z,964.07
2022-07-31T05:42:06.770Z,964.06
2022-07-31T05:43:06.325Z,964.05
2022-07-31T05:44:06.395Z,964.09
2022-07-31T05:45:06.365Z,964.1
2022-07-31T05:46:06.337Z,964.12
2022-07-31T05:47:06.432Z,964.11
2022-07-31T05:49:06.457Z,964.16
2022-07-31T05:52:06.601Z,964.17
2022-07-31T05:53:06.281Z,964.14
2022-07-31T05:54:06.376Z,964.18
2022-07-31T05:56:06.410Z,964.2
2022-07-31T05:57:06.297Z,964.15
2022-07-31T05:58:06.449Z,964.16
2022-07-31T06:00:06.308Z,964.2
2022-07-31T06:01:07.305Z,964.22
2022-07-31T06:02:06.804Z,964.21
2022-07-31T06:03:06.316Z,964.22
2022-07-31T06:05:06.323Z,964.25
2022-07-31T06:06:06.321Z,964.26
2022-07-31T06:07:06.370Z,964.22
2022-07-31T06:08:06.322Z,964.26
2022-07-31T06:09:06.477Z,964.25
2022-07-31T06:10:06.474Z,964.27
2022-07-31T06:11:06.437Z,964.25
2022-07-31T06:12:06.521Z,964.27
2022-07-31T06:13:06.369Z,964.25
2022-07-31T06:14:06.387Z,964.26
2022-07-31T06:15:06.411Z,964.25
2022-07-31T06:16:06.473Z,964.27
2022-07-31T06:18:06.545Z,964.26
2022-07-31T06:19:07.399Z,964.29
2022-07-31T06:20:06.353Z,964.3
2022-07-31T06:21:06.500Z,964.31
2022-07-31T06:22:06.779Z,964.27
2022-07-31T06:23:14.466Z,964.29
2022-07-31T06:24:06.524Z,964.32
2022-07-31T06:25:06.651Z,964.33
2022-07-31T06:26:06.357Z,964.32
2022-07-31T06:27:06.559Z,964.31
2022-07-31T06:28:10.247Z,964.34
2022-07-31T06:29:06.625Z,964.38
2022-07-31T06:30:06.372Z,964.39
2022-07-31T06:31:06.372Z,964.37
2022-07-31T06:32:06.627Z,964.38
2022-07-31T06:33:08.026Z,964.41
2022-07-31T06:34:06.505Z,964.43
2022-07-31T06:35:06.392Z,964.42
2022-07-31T06:36:06.391Z,964.47
2022-07-31T06:37:06.394Z,964.46
2022-07-31T06:38:06.470Z,964.5
2022-07-31T06:39:06.540Z,964.49
2022-07-31T06:40:06.507Z,964.53
2022-07-31T06:41:06.479Z,964.55
2022-07-31T06:42:06.675Z,964.6
2022-07-31T06:43:06.788Z,964.61
2022-07-31T06:45:06.466Z,964.58
2022-07-31T06:47:06.525Z,964.57
2022-07-31T06:49:08.863Z,964.55
2022-07-31T06:50:06.594Z,964.53
2022-07-31T06:51:29.495Z,964.56
2022-07-31T06:53:07.603Z,964.53
2022-07-31T06:54:06.434Z,964.55
2022-07-31T06:55:06.436Z,964.58
2022-07-31T06:56:06.594Z,964.61
2022-07-31T06:57:06.568Z,964.58
2022-07-31T06:58:06.525Z,964.56
2022-07-31T06:59:06.601Z,964.69
2022-07-31T07:00:15.271Z,964.81
2022-07-31T07:01:06.476Z,964.86
2022-07-31T07:02:06.641Z,964.97
2022-07-31T07:03:06.583Z,965.09
2022-07-31T07:04:06.485Z,965.04
2022-07-31T07:06:06.467Z,965.02
2022-07-31T07:07:06.469Z,964.99
2022-07-31T07:09:06.581Z,965
2022-07-31T07:10:06.544Z,964.97
2022-07-31T07:12:06.684Z,965
2022-07-31T07:13:06.555Z,964.99
2022-07-31T07:15:06.590Z,964.96
2022-07-31T07:17:06.625Z,964.94
2022-07-31T07:19:06.661Z,964.89
2022-07-31T07:20:06.498Z,964.77
2022-07-31T07:21:06.509Z,964.82
2022-07-31T07:22:06.758Z,964.79
2022-07-31T07:23:06.505Z,964.77
2022-07-31T07:24:06.600Z,964.76
2022-07-31T07:25:06.513Z,964.78
2022-07-31T07:26:06.636Z,964.73
2022-07-31T07:27:06.603Z,964.75
2022-07-31T07:28:06.575Z,964.74
2022-07-31T07:29:06.649Z,964.67
2022-07-31T07:30:06.609Z,964.72
2022-07-31T07:32:06.792Z,964.66
2022-07-31T07:33:06.611Z,964.59
2022-07-31T07:34:06.538Z,964.62
2022-07-31T07:35:06.649Z,964.57
2022-07-31T07:37:06.783Z,964.52
2022-07-31T07:38:06.647Z,964.49
2022-07-31T07:39:06.565Z,964.51
2022-07-31T07:40:06.677Z,964.49
2022-07-31T07:41:06.666Z,964.47
2022-07-31T07:42:06.900Z,964.53
2022-07-31T07:43:06.708Z,964.52
2022-07-31T07:44:06.822Z,964.59
2022-07-31T07:45:06.750Z,964.57
2022-07-31T07:46:06.702Z,964.54
2022-07-31T07:47:06.670Z,964.5
2022-07-31T07:48:07.494Z,964.51
2022-07-31T07:49:06.637Z,964.45
2022-07-31T07:50:06.678Z,964.49
2022-07-31T07:52:06.581Z,964.5
2022-07-31T07:53:06.675Z,964.47
2022-07-31T07:55:06.707Z,964.45
2022-07-31T07:56:06.667Z,964.46
2022-07-31T07:57:06.744Z,964.48
2022-07-31T07:58:11.477Z,964.46
2022-07-31T07:59:06.681Z,964.34
2022-07-31T08:00:06.683Z,964.37
2022-07-31T08:01:06.685Z,964.31
2022-07-31T08:02:07.081Z,964.36
2022-07-31T08:03:47.942Z,964.35
2022-07-31T08:04:06.619Z,964.36
2022-07-31T08:05:06.689Z,964.42
2022-07-31T08:06:06.658Z,964.43
2022-07-31T08:07:06.729Z,964.39
2022-07-31T08:08:06.700Z,964.28
2022-07-31T08:09:06.660Z,964.34
2022-07-31T08:10:06.737Z,964.27
2022-07-31T08:11:06.696Z,964.26
2022-07-31T08:12:06.973Z,964.23
2022-07-31T08:13:06.733Z,964.21
2022-07-31T08:16:06.744Z,964.18
2022-07-31T08:17:06.713Z,964.16
2022-07-31T08:18:06.678Z,964.15
2022-07-31T08:19:06.658Z,964.18
2022-07-31T08:20:06.645Z,964.13
2022-07-31T08:21:06.792Z,964.19
2022-07-31T08:22:06.970Z,964.14
2022-07-31T08:23:06.650Z,964.19
2022-07-31T08:24:06.677Z,964.13
2022-07-31T08:25:06.661Z,964.05
2022-07-31T08:26:06.920Z,964.03
2022-07-31T08:27:08.778Z,963.96
2022-07-31T08:29:07.733Z,963.99
2022-07-31T08:30:06.799Z,964
2022-07-31T08:32:07.069Z,963.93
2022-07-31T08:33:06.687Z,963.91
2022-07-31T08:34:06.701Z,963.87
2022-07-31T08:35:06.688Z,963.96
2022-07-31T08:36:06.799Z,963.94
2022-07-31T08:40:06.761Z,963.95
2022-07-31T08:41:06.750Z,963.94
2022-07-31T08:42:06.773Z,963.93
2022-07-31T08:43:07.455Z,963.92
2022-07-31T08:46:06.729Z,963.9
2022-07-31T08:48:06.809Z,963.85
2022-07-31T08:49:06.793Z,963.91
2022-07-31T08:50:06.745Z,963.88
2022-07-31T08:51:06.825Z,963.84
2022-07-31T08:53:06.863Z,963.76
2022-07-31T08:54:06.746Z,963.79
2022-07-31T08:56:06.762Z,963.8
2022-07-31T08:57:10.633Z,963.78
2022-07-31T08:59:06.866Z,963.79
2022-07-31T09:00:06.747Z,963.83
2022-07-31T09:01:06.840Z,963.8
2022-07-31T09:02:07.140Z,963.87
2022-07-31T09:03:06.840Z,963.84
2022-07-31T09:05:06.780Z,963.8
2022-07-31T09:06:06.770Z,963.84
2022-07-31T09:07:07.015Z,963.87
2022-07-31T09:08:08.456Z,963.83
2022-07-31T09:09:06.773Z,963.81
2022-07-31T09:10:06.850Z,963.87
2022-07-31T09:11:06.797Z,963.88
2022-07-31T09:12:06.785Z,963.86
2022-07-31T09:13:06.912Z,963.84
2022-07-31T09:14:06.882Z,963.83
2022-07-31T09:15:06.853Z,963.82
2022-07-31T09:16:06.803Z,963.89
2022-07-31T09:17:07.150Z,963.88
2022-07-31T09:19:26.332Z,963.85
2022-07-31T09:21:06.817Z,963.88
2022-07-31T09:22:10.214Z,963.94
2022-07-31T09:23:06.897Z,963.96
2022-07-31T09:24:06.854Z,963.95
2022-07-31T09:25:06.830Z,964.02
2022-07-31T09:26:06.905Z,963.96
2022-07-31T09:27:07.017Z,963.99
2022-07-31T09:29:06.829Z,963.92
2022-07-31T09:30:06.885Z,963.86
2022-07-31T09:31:06.845Z,963.87
2022-07-31T09:32:06.923Z,963.94
2022-07-31T09:36:06.982Z,963.97
2022-07-31T09:37:07.136Z,963.89
2022-07-31T09:38:06.854Z,963.91
2022-07-31T09:39:06.982Z,963.95
2022-07-31T09:40:08.005Z,963.94
2022-07-31T09:41:07.668Z,963.92
2022-07-31T09:42:16.717Z,963.93
2022-07-31T09:43:07.088Z,963.91
2022-07-31T09:44:09.370Z,963.89
2022-07-31T09:45:06.906Z,963.79
2022-07-31T09:46:07.036Z,963.84
2022-07-31T09:47:07.056Z,963.77
2022-07-31T09:49:07.015Z,963.75
2022-07-31T09:50:06.930Z,963.76
2022-07-31T09:52:06.967Z,963.73
2022-07-31T09:53:06.933Z,963.72
2022-07-31T09:54:07.010Z,963.77
2022-07-31T09:55:14.371Z,963.78
2022-07-31T09:56:07.041Z,963.75
2022-07-31T09:57:07.212Z,963.73
2022-07-31T09:59:07.029Z,963.75
2022-07-31T10:00:07.019Z,963.71
2022-07-31T10:01:06.968Z,963.65
2022-07-31T10:02:06.925Z,963.63
2022-07-31T10:04:06.987Z,963.56
2022-07-31T10:05:07.065Z,963.54
2022-07-31T10:06:07.019Z,963.56
2022-07-31T10:07:07.226Z,963.62
2022-07-31T10:09:07.025Z,963.66
2022-07-31T10:11:06.952Z,963.62
2022-07-31T10:12:07.202Z,963.65
2022-07-31T10:13:07.036Z,963.66
2022-07-31T10:15:07.026Z,963.62
2022-07-31T10:16:07.005Z,963.65
2022-07-31T10:17:07.103Z,963.6
2022-07-31T10:18:07.032Z,963.57
2022-07-31T10:19:07.102Z,963.55
2022-07-31T10:20:07.075Z,963.52
2022-07-31T10:21:07.037Z,963.48
2022-07-31T10:22:07.005Z,963.47
2022-07-31T10:23:07.077Z,963.46
2022-07-31T10:24:07.046Z,963.45
2022-07-31T10:25:07.041Z,963.46
2022-07-31T10:27:10.497Z,963.39
2022-07-31T10:28:07.206Z,963.41
2022-07-31T10:29:06.988Z,963.4
2022-07-31T10:30:07.052Z,963.35
2022-07-31T10:31:07.129Z,963.36
2022-07-31T10:32:07.089Z,963.42
2022-07-31T10:33:17.618Z,963.43
2022-07-31T10:34:07.134Z,963.4
2022-07-31T10:35:07.091Z,963.39
2022-07-31T10:37:08.420Z,963.4
2022-07-31T10:38:07.008Z,963.37
2022-07-31T10:39:07.062Z,963.38
2022-07-31T10:40:07.021Z,963.32
2022-07-31T10:41:07.100Z,963.35
2022-07-31T10:42:07.175Z,963.3
2022-07-31T10:43:07.030Z,963.35
2022-07-31T10:44:07.027Z,963.29
2022-07-31T10:45:07.038Z,963.23
2022-07-31T10:46:07.039Z,963.26
2022-07-31T10:47:07.345Z,963.28
2022-07-31T10:48:07.069Z,963.23
2022-07-31T10:49:08.203Z,963.2
2022-07-31T10:50:07.113Z,963.25
2022-07-31T10:51:07.075Z,963.27
2022-07-31T10:53:07.111Z,963.21
2022-07-31T10:54:07.204Z,963.25
2022-07-31T10:55:07.190Z,963.26
2022-07-31T10:56:07.153Z,963.24
2022-07-31T10:57:07.347Z,963.26
2022-07-31T11:00:07.095Z,963.16
2022-07-31T11:01:07.163Z,963.1
2022-07-31T11:03:07.084Z,963.11
2022-07-31T11:04:07.087Z,963.1
2022-07-31T11:05:07.142Z,963.13
2022-07-31T11:06:07.083Z,963.15
2022-07-31T11:07:07.335Z,963.19
2022-07-31T11:08:07.087Z,963.18
2022-07-31T11:09:07.202Z,963.14
2022-07-31T11:10:07.100Z,963.07
2022-07-31T11:11:07.084Z,963.1
2022-07-31T11:13:07.102Z,963.07
2022-07-31T11:14:07.154Z,963.11
2022-07-31T11:15:07.209Z,963.01
2022-07-31T11:16:07.169Z,963.03
2022-07-31T11:17:07.490Z,963.05
2022-07-31T11:18:16.136Z,963.06
2022-07-31T11:19:07.116Z,963.04
2022-07-31T11:20:07.383Z,963.08
2022-07-31T11:21:22.659Z,963.09
2022-07-31T11:22:30.414Z,963.06
2022-07-31T11:23:07.182Z,963.07
2022-07-31T11:25:07.196Z,963.02
2022-07-31T11:26:07.082Z,962.93
2022-07-31T11:27:07.619Z,962.82
2022-07-31T11:28:07.143Z,962.76
2022-07-31T11:29:57.879Z,962.7
2022-07-31T11:30:10.929Z,962.68
2022-07-31T11:31:07.415Z,962.69
2022-07-31T11:33:07.154Z,962.71
2022-07-31T11:34:07.206Z,962.72
2022-07-31T11:35:07.265Z,962.76
2022-07-31T11:36:07.234Z,962.7
2022-07-31T11:39:07.336Z,962.65
2022-07-31T11:40:07.173Z,962.7
2022-07-31T11:41:07.169Z,962.69
2022-07-31T11:42:07.852Z,962.7
2022-07-31T11:43:26.293Z,962.71
2022-07-31T11:44:07.314Z,962.73
2022-07-31T11:45:08.260Z,962.74
2022-07-31T11:47:56.037Z,962.8
2022-07-31T11:48:10.367Z,962.79
2022-07-31T11:49:07.399Z,962.73
2022-07-31T11:50:07.204Z,962.74
2022-07-31T11:51:07.254Z,962.72
2022-07-31T11:52:07.226Z,962.7
2022-07-31T11:53:07.417Z,962.69
2022-07-31T11:54:07.264Z,962.61
2022-07-31T11:55:09.277Z,962.63
2022-07-31T11:57:07.358Z,962.68
2022-07-31T12:00:23.216Z,962.6
2022-07-31T12:01:07.469Z,962.58
2022-07-31T12:03:07.321Z,962.59
2022-07-31T12:04:08.436Z,962.58
2022-07-31T12:05:07.305Z,962.57
2022-07-31T12:06:07.278Z,962.53
2022-07-31T12:07:07.538Z,962.54
2022-07-31T12:09:07.276Z,962.51
2022-07-31T12:10:07.514Z,962.52
2022-07-31T12:11:07.319Z,962.55
2022-07-31T12:12:07.253Z,962.52
2022-07-31T12:13:07.261Z,962.55
2022-07-31T12:14:07.417Z,962.51
2022-07-31T12:16:07.352Z,962.49
2022-07-31T12:17:07.554Z,962.55
2022-07-31T12:19:07.366Z,962.48
2022-07-31T12:20:07.435Z,962.45
2022-07-31T12:21:07.280Z,962.46
2022-07-31T12:22:07.275Z,962.45
2022-07-31T12:23:07.431Z,962.42
2022-07-31T12:24:07.402Z,962.34
2022-07-31T12:25:09.026Z,962.26
2022-07-31T12:26:07.479Z,962.27
2022-07-31T12:27:07.627Z,962.26
2022-07-31T12:28:07.373Z,962.25
2022-07-31T12:30:07.406Z,962.23
2022-07-31T12:31:07.408Z,962.19
2022-07-31T12:32:07.317Z,962.13
2022-07-31T12:34:07.302Z,962.18
2022-07-31T12:35:07.387Z,962.26
2022-07-31T12:36:07.420Z,962.33
2022-07-31T12:37:07.741Z,962.32
2022-07-31T12:39:07.421Z,962.36
2022-07-31T12:40:07.388Z,962.32
2022-07-31T12:41:07.351Z,962.38
2022-07-31T12:43:07.329Z,962.31
2022-07-31T12:44:07.349Z,962.3
2022-07-31T12:45:17.720Z,962.34
2022-07-31T12:46:07.388Z,962.32
2022-07-31T12:47:07.565Z,962.35
2022-07-31T12:48:07.476Z,962.31
2022-07-31T12:50:07.464Z,962.3
2022-07-31T12:51:07.357Z,962.28
2022-07-31T12:52:07.507Z,962.25
2022-07-31T12:53:07.367Z,962.29
2022-07-31T12:54:07.434Z,962.3
2022-07-31T12:55:07.408Z,962.22
2022-07-31T12:56:07.476Z,962.14
2022-07-31T12:57:07.568Z,962.1
2022-07-31T12:58:07.368Z,962.11
2022-07-31T12:59:07.478Z,962.2
2022-07-31T13:00:07.446Z,962.22
2022-07-31T13:01:07.544Z,962.24
2022-07-31T13:02:07.554Z,962.17
2022-07-31T13:04:07.422Z,962.18
2022-07-31T13:05:07.490Z,962.27
2022-07-31T13:07:07.684Z,962.26
2022-07-31T13:10:15.238Z,962.25
2022-07-31T13:11:07.519Z,962.23
2022-07-31T13:12:07.669Z,962.2
2022-07-31T13:14:07.498Z,962.22
2022-07-31T13:15:07.411Z,962.19
2022-07-31T13:16:07.436Z,962.18
2022-07-31T13:17:07.761Z,962.17
2022-07-31T13:18:07.703Z,962.22
2022-07-31T13:20:07.450Z,962.2
2022-07-31T13:21:07.481Z,962.14
2022-07-31T13:22:07.441Z,962.07
2022-07-31T13:23:07.503Z,962.08
2022-07-31T13:24:07.571Z,962.07
2022-07-31T13:25:07.538Z,962.09
2022-07-31T13:26:07.453Z,962.04
2022-07-31T13:27:07.788Z,962.08
2022-07-31T13:28:07.456Z,962.06
2022-07-31T13:29:07.505Z,962.03
2022-07-31T13:30:07.476Z,961.99
2022-07-31T13:32:07.626Z,962.02
2022-07-31T13:35:19.998Z,962.03
2022-07-31T13:37:07.636Z,962.01
2022-07-31T13:38:07.582Z,961.97
2022-07-31T13:39:07.601Z,961.93
2022-07-31T13:41:07.530Z,961.96
2022-07-31T13:42:07.601Z,961.87
2022-07-31T13:43:07.694Z,961.82
2022-07-31T13:44:07.556Z,961.87
2022-07-31T13:45:08.477Z,961.83
2022-07-31T13:46:07.693Z,961.82
2022-07-31T13:47:07.680Z,961.77
2022-07-31T13:48:09.473Z,961.81
2022-07-31T13:49:07.791Z,961.75
2022-07-31T13:50:07.642Z,961.77
2022-07-31T13:52:07.900Z,961.76
2022-07-31T13:53:07.469Z,961.78
2022-07-31T13:54:07.515Z,961.8
2022-07-31T13:55:07.512Z,961.81
2022-07-31T13:56:07.537Z,961.83
2022-07-31T13:57:07.721Z,961.81
2022-07-31T13:58:07.608Z,961.88
2022-07-31T13:59:07.656Z,961.84
2022-07-31T14:00:07.619Z,961.81
2022-07-31T14:01:07.606Z,961.68
2022-07-31T14:02:07.649Z,961.62
2022-07-31T14:03:07.622Z,961.61
2022-07-31T14:04:07.700Z,961.57
2022-07-31T14:05:07.685Z,961.55
2022-07-31T14:06:07.561Z,961.51
2022-07-31T14:08:30.357Z,961.41
2022-07-31T14:09:07.629Z,961.44
2022-07-31T14:10:07.700Z,961.49
2022-07-31T14:12:07.912Z,961.52
2022-07-31T14:13:07.711Z,961.56
2022-07-31T14:14:07.677Z,961.66
2022-07-31T14:15:07.643Z,961.72
2022-07-31T14:16:07.613Z,961.76
2022-07-31T14:17:07.682Z,961.74
2022-07-31T14:19:07.612Z,961.71
2022-07-31T14:20:07.680Z,961.73
2022-07-31T14:21:07.606Z,961.72
2022-07-31T14:23:07.689Z,961.59
2022-07-31T14:24:07.652Z,961.58
2022-07-31T14:25:07.734Z,961.52
2022-07-31T14:26:07.602Z,961.57
2022-07-31T14:28:07.618Z,961.65
2022-07-31T14:29:07.607Z,961.63
2022-07-31T14:30:07.616Z,961.64
2022-07-31T14:31:07.624Z,961.66
2022-07-31T14:32:08.016Z,961.7
2022-07-31T14:33:07.612Z,961.72
2022-07-31T14:34:07.727Z,961.71
2022-07-31T14:38:07.717Z,961.7
2022-07-31T14:39:07.673Z,961.68
2022-07-31T14:40:07.739Z,961.7
2022-07-31T14:41:07.641Z,961.69
2022-07-31T14:42:07.879Z,961.68
2022-07-31T14:43:07.652Z,961.58
2022-07-31T14:44:07.710Z,961.61
2022-07-31T14:45:07.652Z,961.49
2022-07-31T14:46:07.748Z,961.47
2022-07-31T14:47:07.916Z,961.41
2022-07-31T14:48:07.654Z,961.36
2022-07-31T14:49:07.701Z,961.32
2022-07-31T14:51:07.708Z,961.33
2022-07-31T14:53:07.768Z,961.37
2022-07-31T14:55:07.770Z,961.38
2022-07-31T14:56:07.674Z,961.42
2022-07-31T14:57:07.783Z,961.45
2022-07-31T14:58:07.778Z,961.44
2022-07-31T14:59:07.690Z,961.49
2022-07-31T15:00:07.683Z,961.51
2022-07-31T15:01:07.705Z,961.48
2022-07-31T15:02:07.698Z,961.51
2022-07-31T15:03:07.905Z,961.52